createdAt,value
2022-11-23T08:15:54.424Z,163.12
2022-11-23T08:16:50.412Z,157.50
2022-11-23T08:17:51.448Z,157.50
2022-11-23T08:18:50.816Z,151.88
2022-11-23T08:19:51.657Z,157.50
2022-11-23T08:20:52.607Z,163.12
2022-11-23T08:21:53.311Z,180.00
2022-11-23T08:22:54.008Z,191.25
2022-11-23T08:23:54.755Z,196.88
2022-11-23T08:24:55.476Z,202.50
2022-11-23T08:25:56.486Z,219.38
2022-11-23T08:26:56.692Z,225.00
2022-11-23T08:27:57.434Z,236.25
2022-11-23T08:28:58.100Z,241.88
2022-11-23T08:29:58.813Z,236.25
2022-11-23T08:30:59.612Z,236.25
2022-11-23T08:32:00.302Z,230.62
2022-11-23T08:33:01.023Z,236.25
2022-11-23T08:34:03.570Z,236.25
2022-11-23T08:35:02.519Z,236.25
2022-11-23T08:36:03.254Z,230.62
2022-11-23T08:37:03.987Z,241.88
2022-11-23T08:38:04.720Z,253.12
2022-11-23T08:39:05.499Z,264.38
2022-11-23T08:40:06.208Z,275.62
2022-11-23T08:41:06.982Z,281.25
2022-11-23T08:42:07.703Z,286.88
2022-11-23T08:43:08.415Z,286.88
2022-11-23T08:44:09.262Z,292.50
2022-11-23T08:45:09.972Z,315.00
2022-11-23T08:46:11.331Z,281.25
2022-11-23T08:47:11.667Z,320.62
2022-11-23T08:48:12.395Z,320.62
2022-11-23T08:49:13.115Z,343.12
2022-11-23T08:50:13.831Z,354.38
2022-11-23T08:51:14.495Z,348.75
2022-11-23T08:52:15.180Z,343.12
2022-11-23T08:53:15.893Z,320.62
2022-11-23T08:54:16.631Z,303.75
2022-11-23T08:55:17.316Z,281.25
2022-11-23T08:56:18.529Z,247.50
2022-11-23T08:57:18.689Z,225.00
2022-11-23T08:58:19.406Z,292.50
2022-11-23T08:59:20.119Z,270.00
2022-11-23T09:00:20.861Z,309.38
2022-11-23T09:01:22.132Z,326.25
2022-11-23T09:02:22.288Z,275.62
2022-11-23T09:03:23.013Z,275.62
2022-11-23T09:04:24.548Z,309.38
2022-11-23T09:05:24.259Z,253.12
2022-11-23T09:06:25.668Z,247.50
2022-11-23T09:07:28.629Z,247.50
2022-11-23T09:08:29.258Z,264.38
2022-11-23T09:09:27.841Z,281.25
2022-11-23T09:10:30.222Z,309.38
2022-11-23T09:11:28.944Z,309.38
2022-11-23T09:12:29.680Z,298.12
2022-11-23T09:13:30.458Z,292.50
2022-11-23T09:14:32.081Z,286.88
2022-11-23T09:15:32.030Z,281.25
2022-11-23T09:16:48.324Z,286.88
2022-11-23T09:17:34.284Z,286.88
2022-11-23T09:18:34.788Z,286.88
2022-11-23T09:19:34.841Z,286.88
2022-11-23T09:20:35.529Z,286.88
2022-11-23T09:21:41.167Z,286.88
2022-11-23T09:22:41.792Z,281.25
2022-11-23T09:23:38.109Z,281.25
2022-11-23T09:24:39.302Z,281.25
2022-11-23T09:25:39.508Z,281.25
2022-11-23T09:26:40.205Z,281.25
2022-11-23T09:27:41.054Z,281.25
2022-11-23T09:28:44.658Z,286.88
2022-11-23T09:29:42.253Z,286.88
2022-11-23T09:30:42.958Z,286.88
2022-11-23T09:31:43.736Z,286.88
2022-11-23T09:32:44.455Z,292.50
2022-11-23T09:33:45.140Z,292.50
2022-11-23T09:34:45.668Z,298.12
2022-11-23T09:35:46.466Z,298.12
2022-11-23T09:40:19.677Z,303.75
2022-11-23T09:41:20.657Z,309.38
2022-11-23T09:42:21.321Z,309.38
2022-11-23T09:43:21.037Z,309.38
2022-11-23T09:44:21.875Z,315.00
2022-11-23T09:45:22.460Z,315.00
2022-11-23T09:46:23.166Z,320.62
2022-11-23T09:47:23.929Z,320.62
2022-11-23T09:48:24.660Z,337.50
2022-11-23T09:49:25.639Z,348.75
2022-11-23T09:50:25.837Z,315.00
2022-11-23T09:51:26.871Z,326.25
2022-11-23T09:52:27.076Z,337.50
2022-11-23T09:53:27.773Z,348.75
2022-11-23T09:54:28.555Z,354.38
2022-11-23T09:55:29.259Z,343.12
2022-11-23T09:56:30.061Z,348.75
2022-11-23T09:57:30.781Z,343.12
2022-11-23T09:58:31.533Z,348.75
2022-11-23T09:59:32.280Z,354.38
2022-11-23T10:00:32.972Z,365.62
2022-11-23T10:01:33.799Z,337.50
2022-11-23T10:02:34.503Z,337.50
2022-11-23T10:03:35.249Z,337.50
2022-11-23T10:04:36.100Z,348.75
2022-11-23T10:05:36.848Z,343.12
2022-11-23T10:06:37.555Z,348.75
2022-11-23T10:07:38.348Z,348.75
2022-11-23T10:08:39.039Z,365.62
2022-11-23T10:09:39.798Z,354.38
2022-11-23T10:10:40.489Z,354.38
2022-11-23T10:11:41.239Z,371.25
2022-11-23T10:12:41.964Z,376.88
2022-11-23T10:13:42.668Z,371.25
2022-11-23T10:14:43.419Z,337.50
2022-11-23T10:15:44.140Z,393.75
2022-11-23T10:16:44.893Z,388.12
2022-11-23T10:17:45.737Z,360.00
2022-11-23T10:18:46.493Z,388.12
2022-11-23T10:19:47.627Z,376.88
2022-11-23T10:20:50.132Z,371.25
2022-11-23T10:21:48.359Z,382.50
2022-11-23T10:22:49.115Z,360.00
2022-11-23T10:23:49.805Z,230.62
2022-11-23T10:24:50.554Z,258.75
2022-11-23T10:25:51.273Z,427.50
2022-11-23T10:26:52.044Z,275.62
2022-11-23T10:27:52.774Z,281.25
2022-11-23T10:28:53.461Z,371.25
2022-11-23T10:29:54.205Z,275.62
2022-11-23T10:30:55.000Z,427.50
2022-11-23T10:31:57.457Z,410.62
2022-11-23T10:32:56.704Z,405.00
2022-11-23T10:33:57.461Z,421.88
2022-11-23T10:35:02.141Z,427.50
2022-11-23T10:35:58.956Z,405.00
2022-11-23T10:37:00.579Z,410.62
2022-11-23T10:38:00.318Z,438.75
2022-11-23T10:39:01.042Z,421.88
2022-11-23T10:40:01.766Z,433.12
2022-11-23T10:41:02.485Z,286.88
2022-11-23T10:42:03.231Z,416.25
2022-11-23T10:43:03.934Z,444.38
2022-11-23T10:44:04.636Z,444.38
2022-11-23T10:45:05.353Z,399.38
2022-11-23T10:46:06.101Z,399.38
2022-11-23T10:47:06.797Z,399.38
2022-11-23T10:48:07.498Z,393.75
2022-11-23T10:49:08.257Z,438.75
2022-11-23T10:50:09.040Z,433.12
2022-11-23T10:51:09.794Z,438.75
2022-11-23T10:52:10.512Z,450.00
2022-11-23T10:53:11.297Z,455.62
2022-11-23T10:54:11.969Z,478.12
2022-11-23T10:55:12.677Z,506.25
2022-11-23T10:56:13.413Z,528.75
2022-11-23T10:57:14.137Z,568.12
2022-11-23T10:58:14.884Z,590.62
2022-11-23T10:59:15.574Z,618.75
2022-11-23T11:00:16.772Z,630.00
2022-11-23T11:01:17.049Z,646.88
2022-11-23T11:02:17.780Z,663.75
2022-11-23T11:03:18.455Z,669.38
2022-11-23T11:04:19.204Z,601.88
2022-11-23T11:05:19.904Z,658.12
2022-11-23T11:06:20.635Z,675.00
2022-11-23T11:07:21.445Z,669.38
2022-11-23T11:08:22.125Z,669.38
2022-11-23T11:09:22.842Z,675.00
2022-11-23T11:10:23.583Z,680.62
2022-11-23T11:11:24.304Z,708.75
2022-11-23T11:12:25.033Z,753.75
2022-11-23T11:13:25.723Z,804.38
2022-11-23T11:14:26.496Z,849.38
2022-11-23T11:15:27.208Z,911.25
2022-11-23T11:16:27.919Z,1012.50
2022-11-23T11:17:28.678Z,1125.00
2022-11-23T11:18:29.388Z,1215.00
2022-11-23T11:19:30.151Z,1383.75
2022-11-23T11:20:30.856Z,1451.25
2022-11-23T11:21:31.579Z,1490.62
2022-11-23T11:22:32.353Z,1648.12
2022-11-23T11:23:33.037Z,1721.25
2022-11-23T11:24:34.041Z,1693.12
2022-11-23T11:25:34.394Z,1693.12
2022-11-23T11:26:35.126Z,1704.38
2022-11-23T11:27:35.831Z,1755.00
2022-11-23T11:28:36.570Z,1940.62
2022-11-23T11:29:39.406Z,1608.75
2022-11-23T11:30:37.960Z,1260.00
2022-11-23T11:31:38.660Z,1293.75
2022-11-23T11:32:39.392Z,1305.00
2022-11-23T11:33:40.144Z,1276.88
2022-11-23T11:34:40.951Z,1260.00
2022-11-23T11:35:41.602Z,1316.25
2022-11-23T11:36:42.398Z,1310.62
2022-11-23T11:37:43.167Z,1333.12
2022-11-23T11:38:48.587Z,1389.38
2022-11-23T11:39:45.430Z,1518.75
2022-11-23T11:40:45.657Z,1636.88
2022-11-23T11:41:45.881Z,787.50
2022-11-23T11:42:46.574Z,1344.38
2022-11-23T11:43:47.289Z,1333.12
2022-11-23T11:44:48.053Z,1383.75
2022-11-23T11:46:28.041Z,1321.88
2022-11-23T11:46:50.362Z,1333.12
2022-11-23T11:47:50.111Z,990.00
2022-11-23T11:48:50.784Z,1231.88
2022-11-23T11:49:51.551Z,1215.00
2022-11-23T11:50:52.253Z,1271.25
2022-11-23T11:51:53.122Z,1186.88
2022-11-23T11:52:53.795Z,1153.12
2022-11-23T11:53:54.556Z,1288.12
2022-11-23T11:54:55.248Z,1293.75
2022-11-23T11:55:56.144Z,1153.12
2022-11-23T11:56:56.902Z,1130.62
2022-11-23T11:57:57.592Z,1198.12
2022-11-23T11:58:58.325Z,1203.75
2022-11-23T11:59:59.053Z,1170.00
2022-11-23T12:01:00.156Z,1215.00
2022-11-23T12:02:00.345Z,1203.75
2022-11-23T12:03:01.111Z,1181.25
2022-11-23T12:04:01.851Z,1147.50
2022-11-23T12:05:18.253Z,1085.62
2022-11-23T12:06:03.156Z,1102.50
2022-11-23T12:07:03.853Z,1175.62
2022-11-23T12:08:04.595Z,1350.00
2022-11-23T12:09:05.312Z,1608.75
2022-11-23T12:10:06.055Z,1681.88
2022-11-23T12:11:07.115Z,1333.12
2022-11-23T12:12:07.349Z,1620.00
2022-11-23T12:13:08.178Z,1541.25
2022-11-23T12:14:08.863Z,1591.88
2022-11-23T12:15:26.613Z,1530.00
2022-11-23T12:16:11.106Z,1518.75
2022-11-23T12:17:31.821Z,1524.38
2022-11-23T12:18:12.418Z,1518.75
2022-11-23T12:19:12.167Z,1406.25
2022-11-23T12:20:13.057Z,1366.88
2022-11-23T12:21:14.014Z,1355.62
2022-11-23T12:22:14.797Z,1423.12
